Kingsbury, United Kingdom
Current Conditions -  °F | °C
As of 3:50 PM on Wednesday 28 Jan 2015 (Local Time) from EGBB Reporting Station
Light Snow Light Snow  
Wind Chill: 30°   Ceiling: 1400
Heat Index: 39°   Visibility: 6mi
Dew Point: 28°   Wind: 16mph
Humidity: 65%   Direction: 280°W
Pressure: 29.53"   Gusts: 30mph
Location:  52.56°N, 1.68°W
Report Text: EGBB 281550Z 28014G26KT 240V300 9999 8000W -SN BKN014 04/M02 Q1000
Loading
Personal Weather Stations






























Interactive Weather Map New forecast layout! Learn more

10-Day Weather Forecast

Advertisements
Track Severe Weather on mobile